Time;durP1;ratioP1;P1;durP2;ratioP2;P2;SDS_P1;SDS_P2;PMS_P1;PMS_P2;Temp;Humidity;BMP_temperature;BMP_pressure;BME280_temperature;BME280_humidity;BME280_pressure;Samples;Min_cycle;Max_cycle;Signal;HPM_P1;HPM_P2
2023/08/11 00:00:13;;;;;;;11.00;9.83;;;13.50;74.00;;;;;;6265570;28;20234;-83
2023/08/11 00:03:16;;;;;;;10.17;9.27;;;13.40;74.10;;;;;;6266971;28;20745;-83
2023/08/11 00:06:20;;;;;;;9.37;8.50;;;13.40;74.30;;;;;;6249440;28;20244;-83
2023/08/11 00:09:26;;;;;;;10.27;9.27;;;13.40;74.40;;;;;;6265982;28;20252;-81
2023/08/11 00:12:29;;;;;;;11.33;10.33;;;13.40;74.50;;;;;;6259581;28;20320;-83
2023/08/11 00:15:39;;;;;;;11.00;10.10;;;13.40;74.50;;;;;;6267180;28;20230;-82
2023/08/11 00:18:43;;;;;;;10.70;9.70;;;13.30;74.60;;;;;;6259720;28;20238;-82
2023/08/11 00:21:46;;;;;;;12.27;11.07;;;13.30;74.60;;;;;;6265649;28;20234;-83
2023/08/11 00:24:49;;;;;;;12.37;10.67;;;13.30;74.70;;;;;;6264159;28;20234;-81
2023/08/11 00:27:52;;;;;;;12.17;11.03;;;13.30;74.80;;;;;;6264044;28;20243;-80
2023/08/11 00:30:57;;;;;;;13.17;11.77;;;13.30;74.90;;;;;;6266585;28;20238;-81
2023/08/11 00:34:01;;;;;;;12.07;10.97;;;13.30;75.00;;;;;;6265246;28;20241;-82
2023/08/11 00:37:04;;;;;;;12.00;10.90;;;13.30;75.00;;;;;;6266002;28;20233;-80
2023/08/11 00:40:09;;;;;;;12.77;11.47;;;13.30;75.00;;;;;;6263637;28;20311;-83
2023/08/11 00:43:12;;;;;;;12.33;11.07;;;13.30;75.10;;;;;;6246109;28;20231;-82
2023/08/11 00:46:18;;;;;;;14.37;12.90;;;13.20;75.10;;;;;;6255435;28;20250;-81
2023/08/11 00:49:22;;;;;;;13.87;12.43;;;13.30;75.20;;;;;;6266227;28;20245;-82
2023/08/11 00:52:26;;;;;;;14.83;12.63;;;13.20;75.20;;;;;;6265377;28;20313;-83
2023/08/11 00:55:30;;;;;;;16.03;13.97;;;13.20;75.20;;;;;;6257777;28;20237;-81
2023/08/11 00:58:34;;;;;;;15.10;13.50;;;13.20;75.20;;;;;;6232900;28;20252;-82
2023/08/11 01:01:39;;;;;;;16.00;14.30;;;13.20;75.20;;;;;;6264109;28;20241;-79
2023/08/11 01:04:43;;;;;;;16.77;14.53;;;13.10;75.30;;;;;;6261472;28;20233;-82
2023/08/11 01:08:03;;;;;;;16.33;13.90;;;13.10;75.20;;;;;;6262784;28;20619;-84
2023/08/11 01:11:24;;;;;;;14.77;13.33;;;13.10;75.30;;;;;;6261685;28;20322;-82
2023/08/11 01:14:35;;;;;;;14.97;13.37;;;13.10;75.30;;;;;;6265414;28;20235;-86
2023/08/11 01:17:40;;;;;;;14.70;13.20;;;13.10;75.40;;;;;;6263432;28;20242;-83
2023/08/11 01:20:45;;;;;;;14.73;13.33;;;13.10;75.40;;;;;;6246721;28;20688;-82
2023/08/11 01:23:49;;;;;;;14.23;12.50;;;13.10;75.40;;;;;;6256209;28;20234;-83
2023/08/11 01:26:55;;;;;;;14.00;12.70;;;13.10;75.40;;;;;;6264197;28;20233;-83
2023/08/11 01:29:58;;;;;;;13.57;11.33;;;13.10;75.50;;;;;;6264144;28;20230;-83
2023/08/11 01:33:02;;;;;;;13.37;12.00;;;13.10;75.50;;;;;;6263087;28;20707;-84
2023/08/11 01:36:08;;;;;;;12.67;11.47;;;13.10;75.60;;;;;;6264140;28;20233;-82
2023/08/11 01:39:13;;;;;;;12.67;11.37;;;13.00;75.60;;;;;;6262831;28;20226;-84
2023/08/11 01:42:16;;;;;;;12.27;11.03;;;13.00;75.80;;;;;;6259806;28;20751;-83
2023/08/11 01:45:19;;;;;;;11.57;10.57;;;13.00;75.90;;;;;;6261792;28;20578;-85
2023/08/11 01:48:23;;;;;;;11.97;10.63;;;13.00;75.90;;;;;;6254300;28;20246;-84
2023/08/11 01:51:28;;;;;;;12.60;11.27;;;13.00;75.90;;;;;;6262336;28;20635;-84
2023/08/11 01:54:32;;;;;;;12.07;10.87;;;13.00;76.00;;;;;;6263865;28;20738;-84
2023/08/11 01:57:37;;;;;;;10.97;10.03;;;12.90;76.20;;;;;;6254033;28;20811;-81
2023/08/11 02:00:54;;;;;;;11.50;10.40;;;13.00;76.20;;;;;;6254923;28;20878;-85
2023/08/11 02:03:59;;;;;;;10.80;9.80;;;13.00;76.30;;;;;;6256675;28;20236;-83
2023/08/11 02:07:02;;;;;;;11.30;10.23;;;13.00;76.30;;;;;;6249379;28;20245;-83
2023/08/11 02:10:08;;;;;;;11.20;10.10;;;13.00;76.40;;;;;;6262185;28;20704;-81
2023/08/11 02:13:12;;;;;;;11.13;10.17;;;12.90;76.50;;;;;;6263128;28;20264;-84
2023/08/11 02:16:15;;;;;;;10.70;9.80;;;13.00;76.50;;;;;;6262842;28;20230;-83
2023/08/11 02:19:19;;;;;;;11.13;10.13;;;13.00;76.40;;;;;;6240285;28;20238;-82
2023/08/11 02:22:22;;;;;;;10.37;9.40;;;13.00;76.50;;;;;;6228748;28;20254;-84
2023/08/11 02:25:30;;;;;;;11.00;10.00;;;13.00;76.50;;;;;;6254799;28;20235;-82
2023/08/11 02:28:33;;;;;;;11.10;10.03;;;13.00;76.50;;;;;;6244200;28;20903;-83
2023/08/11 02:31:36;;;;;;;10.77;9.87;;;13.10;76.50;;;;;;6235371;28;20242;-84
2023/08/11 02:34:41;;;;;;;10.17;9.27;;;13.10;76.50;;;;;;6208218;28;20238;-82
2023/08/11 02:37:44;;;;;;;10.30;9.40;;;13.10;76.50;;;;;;6204871;28;20238;-82
2023/08/11 02:40:51;;;;;;;9.60;8.70;;;13.10;76.50;;;;;;6224938;28;20880;-83
2023/08/11 02:43:54;;;;;;;11.23;10.17;;;13.30;76.50;;;;;;6255846;28;20242;-83
2023/08/11 02:46:58;;;;;;;11.30;10.37;;;13.30;76.50;;;;;;6249540;28;20667;-82
2023/08/11 02:50:01;;;;;;;11.03;10.03;;;13.30;76.50;;;;;;6239876;28;20246;-82
2023/08/11 02:53:05;;;;;;;11.17;9.53;;;13.40;76.50;;;;;;6256145;28;20239;-82
2023/08/11 02:56:11;;;;;;;10.90;9.93;;;13.40;76.40;;;;;;6238586;28;20277;-83
2023/08/11 02:59:15;;;;;;;11.60;10.60;;;13.50;76.40;;;;;;6227261;28;20233;-83
2023/08/11 03:02:18;;;;;;;13.00;11.30;;;13.50;76.30;;;;;;6235178;28;20242;-82
2023/08/11 03:05:21;;;;;;;11.30;10.40;;;13.50;76.30;;;;;;6229402;28;20267;-83
2023/08/11 03:08:25;;;;;;;10.87;9.97;;;13.60;76.20;;;;;;6248513;28;20242;-84
2023/08/11 03:11:30;;;;;;;11.63;10.63;;;13.60;76.20;;;;;;6238497;28;20241;-80
2023/08/11 03:14:33;;;;;;;10.73;9.73;;;13.70;76.00;;;;;;6241114;28;20880;-83
2023/08/11 03:17:36;;;;;;;10.70;9.90;;;13.70;75.90;;;;;;6244179;28;20730;-82
2023/08/11 03:20:40;;;;;;;10.40;9.50;;;13.80;75.80;;;;;;6246407;28;20234;-80
2023/08/11 03:23:45;;;;;;;10.33;9.43;;;13.90;75.70;;;;;;6230062;28;20237;-82
2023/08/11 03:26:49;;;;;;;10.03;9.23;;;13.90;75.60;;;;;;6237886;28;20280;-82
2023/08/11 03:29:54;;;;;;;10.17;9.27;;;13.90;75.50;;;;;;6232494;28;20235;-85
2023/08/11 03:32:57;;;;;;;9.90;9.20;;;13.90;75.40;;;;;;6231469;28;20242;-84
2023/08/11 03:36:01;;;;;;;9.43;8.63;;;13.90;75.30;;;;;;6244271;28;20824;-77
2023/08/11 03:39:04;;;;;;;8.87;8.17;;;14.00;75.20;;;;;;6245784;28;20277;-79
2023/08/11 03:42:09;;;;;;;8.37;7.77;;;14.00;75.20;;;;;;6220964;28;20886;-81
2023/08/11 03:45:16;;;;;;;9.03;8.13;;;14.00;75.10;;;;;;6233657;28;20762;-80
2023/08/11 03:48:19;;;;;;;8.53;8.03;;;14.10;75.00;;;;;;6239487;28;20238;-80
2023/08/11 03:51:22;;;;;;;8.10;7.50;;;14.10;75.00;;;;;;6259766;28;20599;-80
2023/08/11 03:54:25;;;;;;;8.03;7.33;;;14.10;74.90;;;;;;6251453;28;20245;-81
2023/08/11 03:57:48;;;;;;;8.70;7.90;;;14.10;74.80;;;;;;6251643;28;20242;-82
2023/08/11 04:00:51;;;;;;;8.83;8.10;;;14.20;74.80;;;;;;6237589;28;20235;-81
2023/08/11 04:03:54;;;;;;;8.43;7.93;;;14.20;74.60;;;;;;6244648;28;20322;-80
2023/08/11 04:06:58;;;;;;;8.13;7.57;;;14.20;74.50;;;;;;6241385;28;20239;-81
2023/08/11 04:10:01;;;;;;;8.70;8.00;;;14.20;74.40;;;;;;6258128;28;20246;-80
2023/08/11 04:13:06;;;;;;;7.00;6.60;;;14.30;74.30;;;;;;6238803;28;20239;-83
2023/08/11 04:16:09;;;;;;;6.87;6.57;;;14.30;74.20;;;;;;6223119;28;20242;-83
2023/08/11 04:19:12;;;;;;;7.37;6.77;;;14.30;74.00;;;;;;6259425;28;20836;-82
2023/08/11 04:22:16;;;;;;;7.50;7.00;;;14.40;74.00;;;;;;6266762;28;20289;-79
2023/08/11 04:25:30;;;;;;;7.27;6.77;;;14.40;73.90;;;;;;6255746;28;20479;-78
2023/08/11 04:28:36;;;;;;;8.30;7.70;;;14.50;73.80;;;;;;6264673;28;20234;-82
2023/08/11 04:31:40;;;;;;;8.93;8.07;;;14.50;73.70;;;;;;6265744;28;20631;-82
2023/08/11 04:34:43;;;;;;;8.80;8.00;;;14.50;73.30;;;;;;6256426;28;20338;-81
2023/08/11 04:37:46;;;;;;;7.63;7.13;;;14.50;73.10;;;;;;6255932;28;20250;-80
2023/08/11 04:40:52;;;;;;;8.40;7.63;;;14.50;73.00;;;;;;6228293;28;20239;-81
2023/08/11 04:43:57;;;;;;;6.77;6.37;;;14.50;72.90;;;;;;6253599;28;20902;-80
2023/08/11 04:47:00;;;;;;;7.00;6.60;;;14.50;72.90;;;;;;6263501;28;20238;-81
2023/08/11 04:50:04;;;;;;;6.87;6.37;;;14.50;72.90;;;;;;6257389;28;20249;-80
2023/08/11 04:53:08;;;;;;;7.40;6.90;;;14.40;72.90;;;;;;6259815;28;20241;-81
2023/08/11 04:56:11;;;;;;;7.20;6.60;;;14.50;73.00;;;;;;6262773;28;20241;-81
2023/08/11 04:59:16;;;;;;;6.87;6.57;;;14.60;73.00;;;;;;6261803;28;20246;-80
2023/08/11 05:02:19;;;;;;;7.87;7.27;;;14.60;72.90;;;;;;6249203;28;20352;-80
2023/08/11 05:05:22;;;;;;;7.40;6.93;;;14.70;72.80;;;;;;6259655;28;20761;-78
2023/08/11 05:08:25;;;;;;;7.33;6.73;;;14.80;72.70;;;;;;6257580;28;20249;-79
2023/08/11 05:11:28;;;;;;;7.97;7.47;;;14.80;72.60;;;;;;6261177;28;20241;-80
2023/08/11 05:14:33;;;;;;;7.87;7.30;;;14.90;72.50;;;;;;6262011;28;20246;-81
2023/08/11 05:17:36;;;;;;;6.90;6.50;;;14.80;72.50;;;;;;6252485;28;20241;-84
2023/08/11 05:20:40;;;;;;;7.40;6.90;;;14.80;72.70;;;;;;6259820;28;20282;-80
2023/08/11 05:23:43;;;;;;;7.23;6.73;;;14.90;72.90;;;;;;6253338;28;20238;-82
2023/08/11 05:26:46;;;;;;;7.83;7.13;;;15.10;73.00;;;;;;6256996;28;20869;-81
2023/08/11 05:29:50;;;;;;;7.73;7.03;;;15.40;72.90;;;;;;6260980;28;20952;-81
2023/08/11 05:32:54;;;;;;;7.60;6.90;;;15.60;72.20;;;;;;6255474;28;20246;-80
2023/08/11 05:35:57;;;;;;;7.47;6.77;;;16.00;71.60;;;;;;6261204;28;20234;-80
2023/08/11 05:39:00;;;;;;;6.50;5.97;;;16.30;69.10;;;;;;6256371;28;20246;-80
2023/08/11 05:42:04;;;;;;;6.53;6.03;;;16.50;67.80;;;;;;6237469;28;20637;-80
2023/08/11 05:45:09;;;;;;;9.80;6.63;;;16.70;67.10;;;;;;6259511;28;20233;-80
2023/08/11 05:48:13;;;;;;;6.63;6.03;;;16.60;66.00;;;;;;6240997;28;20237;-81
2023/08/11 05:51:16;;;;;;;6.07;5.60;;;16.50;66.30;;;;;;6241825;28;20225;-83
2023/08/11 05:54:19;;;;;;;5.53;5.20;;;16.50;66.90;;;;;;6259378;28;20237;-83
2023/08/11 05:57:22;;;;;;;7.10;6.60;;;16.60;67.00;;;;;;6256869;28;20225;-80
2023/08/11 06:00:27;;;;;;;6.17;5.50;;;16.70;67.30;;;;;;6254560;28;20238;-83
2023/08/11 06:03:30;;;;;;;6.07;5.43;;;16.80;67.50;;;;;;6260880;28;20265;-83
2023/08/11 06:06:34;;;;;;;5.53;5.23;;;16.80;67.50;;;;;;6260789;28;20242;-81
2023/08/11 06:09:37;;;;;;;5.97;5.57;;;16.90;66.90;;;;;;6259438;28;20315;-80
2023/08/11 06:12:40;;;;;;;6.30;5.80;;;17.00;66.80;;;;;;6260603;28;20327;-83
2023/08/11 06:15:45;;;;;;;5.90;5.57;;;17.10;66.80;;;;;;6261535;28;20284;-82
2023/08/11 06:18:48;;;;;;;6.67;6.00;;;17.20;66.40;;;;;;6254848;28;20707;-81
2023/08/11 06:21:52;;;;;;;6.10;5.03;;;17.20;66.00;;;;;;6262923;28;20257;-82
2023/08/11 06:24:55;;;;;;;6.90;6.07;;;17.40;65.60;;;;;;6259121;28;20230;-83
2023/08/11 06:27:58;;;;;;;6.97;5.73;;;17.60;65.90;;;;;;6261282;28;20322;-80
2023/08/11 06:31:03;;;;;;;5.73;5.23;;;17.80;65.50;;;;;;6261518;28;20730;-82
2023/08/11 06:34:07;;;;;;;6.30;5.57;;;18.00;65.10;;;;;;6255547;28;20292;-80
2023/08/11 06:37:10;;;;;;;5.73;5.27;;;18.10;64.00;;;;;;6251611;28;20236;-81
2023/08/11 06:40:14;;;;;;;7.03;6.27;;;18.20;63.40;;;;;;6259402;28;20731;-83
2023/08/11 06:43:17;;;;;;;6.00;5.53;;;18.30;63.50;;;;;;6260663;28;20264;-83
2023/08/11 06:46:21;;;;;;;7.53;5.53;;;18.30;63.40;;;;;;6255631;28;20249;-82
2023/08/11 06:49:25;;;;;;;7.50;5.70;;;18.40;63.20;;;;;;6260140;28;20317;-83
2023/08/11 06:52:28;;;;;;;6.57;5.87;;;18.60;62.60;;;;;;6261515;28;20229;-82
2023/08/11 06:55:31;;;;;;;5.90;5.40;;;18.70;62.60;;;;;;6258069;28;20233;-82
2023/08/11 06:58:34;;;;;;;7.17;5.93;;;18.60;61.70;;;;;;6260930;28;20245;-81
2023/08/11 07:01:39;;;;;;;9.63;5.60;;;18.50;61.90;;;;;;6259618;28;20264;-82
2023/08/11 07:04:42;;;;;;;4.50;4.23;;;18.40;62.40;;;;;;6258578;28;20299;-81
2023/08/11 07:07:45;;;;;;;6.33;5.80;;;18.40;62.80;;;;;;6260365;28;20328;-81
2023/08/11 07:10:49;;;;;;;10.93;5.47;;;18.50;62.70;;;;;;6260928;28;20241;-83
2023/08/11 07:13:52;;;;;;;5.20;4.80;;;18.60;62.20;;;;;;6259241;28;20248;-82
2023/08/11 07:16:56;;;;;;;13.00;5.10;;;18.50;62.20;;;;;;6260278;28;20723;-78
2023/08/11 07:20:00;;;;;;;5.17;4.87;;;18.60;62.50;;;;;;6257818;28;20242;-80
2023/08/11 07:23:06;;;;;;;6.87;5.17;;;18.50;62.10;;;;;;6259943;28;20736;-80
2023/08/11 07:26:09;;;;;;;5.77;5.20;;;18.60;61.90;;;;;;6228002;28;20703;-84
2023/08/11 07:29:12;;;;;;;5.47;4.97;;;18.80;61.80;;;;;;6255610;28;20690;-80
2023/08/11 07:32:16;;;;;;;8.17;4.60;;;18.90;61.30;;;;;;6254854;28;20234;-82
2023/08/11 07:35:20;;;;;;;4.70;4.30;;;19.10;61.00;;;;;;6265294;28;20234;-82
2023/08/11 07:38:23;;;;;;;4.77;4.37;;;19.30;60.90;;;;;;6263845;28;20246;-81
2023/08/11 07:41:26;;;;;;;5.13;4.63;;;19.40;60.30;;;;;;6254908;28;20226;-82
2023/08/11 07:44:29;;;;;;;5.10;4.30;;;19.70;60.10;;;;;;6264301;28;20241;-82
2023/08/11 07:47:35;;;;;;;5.43;4.17;;;19.80;58.90;;;;;;6264361;28;20715;-78
2023/08/11 07:50:39;;;;;;;5.10;4.70;;;20.00;58.60;;;;;;6246734;28;20786;-80
2023/08/11 07:53:44;;;;;;;4.10;3.90;;;20.00;58.90;;;;;;6259431;28;20245;-80
2023/08/11 07:56:47;;;;;;;4.73;4.33;;;20.10;58.50;;;;;;6259358;28;20243;-79
2023/08/11 07:59:51;;;;;;;4.13;3.83;;;20.30;58.20;;;;;;6263285;28;20234;-78
2023/08/11 08:02:56;;;;;;;6.07;3.60;;;20.30;57.80;;;;;;6264461;28;20249;-77
2023/08/11 08:05:59;;;;;;;9.80;4.53;;;20.50;57.50;;;;;;6258072;28;20245;-80
2023/08/11 08:09:02;;;;;;;7.13;4.00;;;20.70;58.00;;;;;;6262461;28;20309;-78
2023/08/11 08:12:06;;;;;;;4.83;3.30;;;20.80;55.90;;;;;;6262467;28;20378;-77
2023/08/11 08:15:11;;;;;;;3.40;3.20;;;20.90;55.00;;;;;;6258749;28;20300;-77
2023/08/11 08:18:16;;;;;;;3.70;3.47;;;21.00;54.10;;;;;;6251752;28;20250;-78
2023/08/11 08:21:19;;;;;;;3.00;2.90;;;21.10;54.80;;;;;;6240584;28;20230;-78
2023/08/11 08:24:22;;;;;;;6.27;3.63;;;21.10;55.40;;;;;;6249182;28;20769;-78
2023/08/11 08:27:25;;;;;;;4.47;3.53;;;21.10;55.50;;;;;;6243075;28;20231;-78
2023/08/11 08:30:28;;;;;;;5.10;3.43;;;21.10;55.70;;;;;;6238512;28;20398;-79
2023/08/11 08:33:32;;;;;;;3.23;2.93;;;21.00;55.40;;;;;;6240451;28;20243;-78
2023/08/11 08:36:36;;;;;;;8.87;4.13;;;21.10;55.50;;;;;;6240726;28;20310;-79
2023/08/11 08:39:39;;;;;;;6.00;4.17;;;21.00;54.60;;;;;;6246050;28;20229;-78
2023/08/11 08:42:43;;;;;;;3.97;3.40;;;21.00;54.80;;;;;;6250285;28;20639;-78
2023/08/11 08:45:47;;;;;;;4.23;3.90;;;20.80;55.20;;;;;;6235587;28;20496;-77
2023/08/11 08:48:59;;;;;;;3.90;3.10;;;20.90;55.60;;;;;;6236936;28;20861;-79
2023/08/11 08:52:02;;;;;;;4.80;3.47;;;21.00;54.40;;;;;;6250483;28;20305;-77
2023/08/11 08:55:09;;;;;;;4.70;3.40;;;21.00;54.50;;;;;;6234173;28;20270;-75
2023/08/11 08:58:14;;;;;;;5.17;3.20;;;21.10;54.10;;;;;;6248627;28;20599;-78
2023/08/11 09:01:18;;;;;;;4.30;3.20;;;21.10;55.30;;;;;;6237713;28;20239;-80
2023/08/11 09:04:23;;;;;;;4.87;3.10;;;21.30;54.50;;;;;;6234983;28;20863;-77
2023/08/11 09:07:27;;;;;;;3.20;2.83;;;21.50;54.60;;;;;;6243556;28;20325;-77
2023/08/11 09:10:31;;;;;;;2.70;2.50;;;21.60;54.80;;;;;;6237533;28;20243;-77
2023/08/11 09:13:36;;;;;;;2.97;2.60;;;21.60;52.60;;;;;;6244230;28;20241;-78
2023/08/11 09:16:40;;;;;;;2.80;2.53;;;21.70;53.80;;;;;;6252012;28;20261;-77
2023/08/11 09:19:50;;;;;;;4.67;2.90;;;21.70;53.30;;;;;;6262804;28;20238;-79
2023/08/11 09:22:53;;;;;;;4.07;2.60;;;21.70;53.30;;;;;;6262063;28;20250;-78
2023/08/11 09:25:57;;;;;;;3.50;3.30;;;21.90;54.30;;;;;;6262277;28;20238;-78
2023/08/11 09:29:00;;;;;;;3.27;2.63;;;22.00;54.20;;;;;;6260016;28;20242;-78
2023/08/11 09:32:05;;;;;;;3.03;2.83;;;22.20;53.60;;;;;;6260919;28;20272;-81
2023/08/11 09:35:12;;;;;;;3.63;2.80;;;22.50;52.20;;;;;;6252611;28;20234;-79
2023/08/11 09:38:16;;;;;;;4.47;2.60;;;22.70;51.60;;;;;;6257996;28;20854;-79
2023/08/11 09:41:19;;;;;;;2.20;2.20;;;22.70;52.40;;;;;;6261115;28;20241;-77
2023/08/11 09:44:22;;;;;;;3.57;2.57;;;22.70;52.20;;;;;;6261508;28;20862;-76
2023/08/11 09:47:27;;;;;;;3.03;2.50;;;22.70;51.80;;;;;;6262563;28;20291;-80
2023/08/11 09:50:36;;;;;;;3.00;2.83;;;22.60;52.20;;;;;;6255806;28;20226;-79
2023/08/11 09:53:40;;;;;;;2.23;2.13;;;22.70;52.20;;;;;;6256797;28;20234;-78
2023/08/11 09:56:44;;;;;;;3.40;2.03;;;22.80;52.00;;;;;;6251762;28;20234;-80
2023/08/11 09:59:49;;;;;;;2.33;2.23;;;22.80;52.30;;;;;;6256735;28;20234;-82
2023/08/11 10:03:02;;;;;;;3.60;2.67;;;22.80;52.60;;;;;;6259237;28;20238;-81
2023/08/11 10:06:08;;;;;;;2.40;2.30;;;22.90;51.80;;;;;;6257944;28;20287;-82
2023/08/11 10:09:13;;;;;;;2.30;2.10;;;22.40;52.20;;;;;;6260314;28;20332;-80
2023/08/11 10:12:17;;;;;;;2.30;2.17;;;22.50;52.70;;;;;;6252358;28;20269;-82
2023/08/11 10:15:22;;;;;;;2.53;2.43;;;22.60;52.90;;;;;;6255958;28;20230;-81
2023/08/11 10:18:27;;;;;;;4.30;4.10;;;22.90;51.70;;;;;;6249846;28;20321;-81
2023/08/11 10:21:32;;;;;;;2.30;2.20;;;23.00;52.50;;;;;;6233346;28;20798;-81
2023/08/11 10:24:37;;;;;;;2.97;2.87;;;22.90;52.70;;;;;;6245367;28;20278;-83
2023/08/11 10:27:41;;;;;;;2.67;2.57;;;23.20;52.70;;;;;;6246263;28;20318;-82
2023/08/11 10:30:54;;;;;;;2.60;2.50;;;23.20;52.30;;;;;;6237866;28;20249;-81
2023/08/11 10:33:58;;;;;;;2.30;2.20;;;23.30;52.50;;;;;;6234129;28;20249;-79
2023/08/11 10:37:03;;;;;;;3.07;2.50;;;23.50;52.20;;;;;;6240844;28;20405;-82
2023/08/11 10:40:09;;;;;;;2.67;2.57;;;23.50;52.50;;;;;;6240748;28;20254;-81
2023/08/11 10:43:12;;;;;;;2.70;2.23;;;23.80;52.70;;;;;;6237149;28;20231;-82
2023/08/11 10:46:21;;;;;;;2.33;2.20;;;24.00;51.40;;;;;;6243208;28;20258;-80
2023/08/11 10:49:35;;;;;;;2.60;2.40;;;24.40;52.50;;;;;;6231414;28;21288;-80
2023/08/11 10:52:41;;;;;;;2.33;2.17;;;24.40;50.20;;;;;;6233106;28;20222;-81
2023/08/11 10:55:59;;;;;;;3.27;2.60;;;24.10;51.00;;;;;;6245236;28;20251;-80
2023/08/11 10:59:09;;;;;;;2.63;2.50;;;23.90;51.50;;;;;;6242581;28;20644;-80
2023/08/11 11:02:13;;;;;;;2.67;2.47;;;23.80;51.10;;;;;;6254475;28;20731;-84
2023/08/11 11:05:21;;;;;;;2.10;2.10;;;23.90;51.50;;;;;;6244953;28;20275;-81
2023/08/11 11:08:26;;;;;;;2.47;2.37;;;24.00;51.20;;;;;;6247760;28;20276;-79
2023/08/11 11:11:30;;;;;;;2.63;2.40;;;24.20;51.30;;;;;;6244674;28;20269;-80
2023/08/11 11:14:38;;;;;;;2.57;2.53;;;24.30;50.70;;;;;;6251641;28;20234;-79
2023/08/11 11:17:41;;;;;;;2.20;2.20;;;24.20;50.50;;;;;;6229143;28;20870;-80
2023/08/11 11:20:46;;;;;;;3.00;2.80;;;24.20;51.60;;;;;;6231783;28;20245;-79
2023/08/11 11:23:51;;;;;;;2.40;2.30;;;24.20;50.70;;;;;;6232930;28;20250;-79
2023/08/11 11:26:55;;;;;;;3.90;2.70;;;23.90;51.70;;;;;;6241338;28;20238;-80
2023/08/11 11:30:02;;;;;;;2.60;2.60;;;23.90;51.30;;;;;;6226360;28;20361;-84
2023/08/11 11:33:07;;;;;;;2.40;2.30;;;23.80;52.00;;;;;;6237815;28;20320;-82
2023/08/11 11:36:12;;;;;;;2.33;2.20;;;23.60;52.50;;;;;;6239362;28;20320;-79
2023/08/11 11:39:18;;;;;;;3.30;3.10;;;23.50;52.50;;;;;;6238493;28;20261;-80
2023/08/11 11:42:21;;;;;;;2.53;2.53;;;23.60;52.90;;;;;;6241526;28;20859;-81
2023/08/11 11:45:26;;;;;;;2.90;2.70;;;23.90;52.30;;;;;;6237415;28;20243;-77
2023/08/11 11:48:29;;;;;;;2.97;2.80;;;23.80;52.00;;;;;;6232774;28;20796;-79
2023/08/11 11:51:32;;;;;;;2.17;2.17;;;24.00;52.10;;;;;;6237832;28;20786;-79
2023/08/11 11:54:37;;;;;;;2.70;2.60;;;23.90;52.20;;;;;;6237894;28;20235;-81
2023/08/11 11:57:40;;;;;;;2.90;2.80;;;24.00;52.30;;;;;;6236616;28;20238;-79
2023/08/11 12:00:45;;;;;;;2.57;2.37;;;24.00;52.50;;;;;;6236358;28;20239;-79
2023/08/11 12:03:50;;;;;;;2.63;2.60;;;24.00;52.30;;;;;;6233112;28;20239;-77
2023/08/11 12:06:53;;;;;;;2.20;2.20;;;24.00;52.60;;;;;;6235123;28;20239;-79
2023/08/11 12:10:01;;;;;;;3.77;2.50;;;24.20;52.00;;;;;;6230624;28;20308;-79
2023/08/11 12:13:04;;;;;;;2.77;2.57;;;24.30;51.30;;;;;;6230071;28;20237;-81
2023/08/11 12:16:08;;;;;;;2.20;2.20;;;24.30;51.20;;;;;;6234461;28;20813;-78
2023/08/11 12:19:12;;;;;;;2.20;2.20;;;24.40;52.20;;;;;;6252816;28;20319;-80
2023/08/11 12:22:29;;;;;;;3.73;2.80;;;24.50;51.80;;;;;;6256832;28;20226;-78
2023/08/11 12:25:47;;;;;;;2.53;2.30;;;24.20;52.30;;;;;;6220877;28;20230;-79
2023/08/11 12:28:51;;;;;;;3.00;2.70;;;24.10;52.20;;;;;;6263770;28;20245;-80
2023/08/11 12:31:54;;;;;;;2.47;2.37;;;24.20;51.80;;;;;;6263618;28;20242;-80
2023/08/11 12:34:57;;;;;;;2.90;2.70;;;24.20;52.10;;;;;;6260271;28;20242;-78
2023/08/11 12:38:02;;;;;;;2.37;2.37;;;23.80;53.20;;;;;;6252593;28;20257;-79
2023/08/11 12:41:06;;;;;;;2.43;2.33;;;23.90;52.20;;;;;;6245677;28;20731;-80
2023/08/11 12:44:09;;;;;;;2.53;2.33;;;23.90;52.50;;;;;;6263123;28;20222;-77
2023/08/11 12:47:13;;;;;;;2.60;2.50;;;23.80;52.70;;;;;;6255873;28;20226;-78
2023/08/11 12:50:17;;;;;;;2.37;2.37;;;23.90;52.50;;;;;;6263167;28;20230;-79
2023/08/11 12:53:21;;;;;;;2.20;2.20;;;23.90;52.70;;;;;;6254541;28;20230;-80
2023/08/11 12:56:26;;;;;;;2.40;2.30;;;24.00;52.50;;;;;;6262396;28;20233;-78
2023/08/11 12:59:32;;;;;;;3.23;1.97;;;24.20;52.50;;;;;;6261145;28;20238;-80
2023/08/11 13:02:35;;;;;;;3.73;3.50;;;24.30;52.60;;;;;;6262181;28;20866;-81
2023/08/11 13:05:38;;;;;;;2.60;2.50;;;24.20;51.90;;;;;;6263852;28;20268;-79
2023/08/11 13:08:41;;;;;;;2.57;2.47;;;24.10;52.30;;;;;;6256887;28;20257;-78
2023/08/11 13:11:46;;;;;;;3.70;2.27;;;24.20;52.60;;;;;;6247188;28;20280;-77
2023/08/11 13:14:49;;;;;;;2.13;2.00;;;24.20;52.40;;;;;;6263295;28;20310;-79
2023/08/11 13:17:52;;;;;;;2.27;2.27;;;24.40;52.10;;;;;;6233805;28;20238;-77
2023/08/11 13:20:56;;;;;;;2.07;2.07;;;24.50;52.60;;;;;;6259522;28;20241;-80
2023/08/11 13:24:00;;;;;;;2.77;2.60;;;24.60;51.60;;;;;;6262768;28;20787;-76
2023/08/11 13:27:04;;;;;;;3.07;2.00;;;24.40;52.60;;;;;;6256367;28;20262;-80
2023/08/11 13:30:08;;;;;;;2.60;2.00;;;24.40;52.70;;;;;;6260410;28;20234;-78
2023/08/11 13:33:12;;;;;;;2.60;2.40;;;24.60;51.70;;;;;;6260853;28;20232;-79
2023/08/11 13:36:16;;;;;;;2.10;2.03;;;24.60;51.40;;;;;;6255795;28;20741;-78
2023/08/11 13:39:19;;;;;;;2.30;2.20;;;24.60;51.60;;;;;;6261989;28;20765;-77
2023/08/11 13:42:26;;;;;;;2.10;2.10;;;24.50;51.50;;;;;;6263836;28;20931;-77
2023/08/11 13:45:29;;;;;;;2.50;2.40;;;24.50;51.60;;;;;;6256264;28;20230;-79
2023/08/11 13:48:32;;;;;;;2.30;2.30;;;24.70;51.30;;;;;;6260170;28;20239;-76
2023/08/11 13:51:35;;;;;;;2.17;2.17;;;24.40;52.30;;;;;;6262786;28;20297;-77
2023/08/11 13:54:39;;;;;;;2.10;2.00;;;24.20;52.20;;;;;;6255849;28;20234;-78
2023/08/11 13:57:44;;;;;;;2.13;1.97;;;24.20;53.40;;;;;;6262944;28;20735;-77
2023/08/11 14:00:48;;;;;;;2.30;2.20;;;24.40;52.80;;;;;;6252735;28;20640;-77
2023/08/11 14:03:51;;;;;;;2.30;2.20;;;24.40;52.20;;;;;;6254210;28;20308;-77
2023/08/11 14:06:55;;;;;;;1.90;1.90;;;24.60;51.80;;;;;;6260686;28;20595;-78
2023/08/11 14:10:16;;;;;;;2.50;2.30;;;24.50;52.20;;;;;;6261758;28;20762;-80
2023/08/11 14:13:23;;;;;;;2.57;2.33;;;24.60;52.20;;;;;;6243325;28;20237;-78
2023/08/11 14:16:26;;;;;;;2.43;2.33;;;24.70;51.90;;;;;;6265203;28;20233;-79
2023/08/11 14:19:29;;;;;;;2.20;2.10;;;24.80;52.60;;;;;;6277603;28;20253;-77
2023/08/11 14:22:32;;;;;;;2.10;2.10;;;25.00;52.00;;;;;;6287901;28;20409;-78
2023/08/11 14:25:36;;;;;;;2.33;2.23;;;25.00;51.60;;;;;;6283835;28;20257;-78
2023/08/11 14:28:40;;;;;;;2.33;2.30;;;24.80;51.90;;;;;;6286677;28;20238;-77
2023/08/11 14:31:43;;;;;;;2.33;2.13;;;24.40;52.70;;;;;;6267459;28;20291;-74
2023/08/11 14:34:46;;;;;;;1.97;1.97;;;24.50;52.70;;;;;;6240554;28;20227;-77
2023/08/11 14:37:49;;;;;;;2.40;2.30;;;24.70;53.00;;;;;;6285669;28;21185;-79
2023/08/11 14:40:52;;;;;;;2.80;2.70;;;25.00;52.50;;;;;;6288017;28;20222;-80
2023/08/11 14:43:57;;;;;;;2.33;2.33;;;25.00;51.60;;;;;;6285927;28;20233;-76
2023/08/11 14:47:00;;;;;;;2.73;2.10;;;25.10;51.90;;;;;;6276486;28;20239;-77
2023/08/11 14:50:03;;;;;;;2.27;2.23;;;25.10;51.70;;;;;;6290206;28;20225;-77
2023/08/11 14:53:06;;;;;;;2.33;2.23;;;25.00;52.70;;;;;;6292040;28;20281;-77
2023/08/11 14:56:09;;;;;;;2.40;2.40;;;25.00;52.30;;;;;;6291379;28;20242;-78
2023/08/11 14:59:14;;;;;;;2.20;2.20;;;25.00;51.60;;;;;;6286812;28;20225;-77
2023/08/11 15:02:17;;;;;;;2.30;2.20;;;25.00;51.80;;;;;;6282895;28;20237;-76
2023/08/11 15:05:21;;;;;;;2.23;2.13;;;25.20;52.30;;;;;;6290716;28;20241;-77
2023/08/11 15:08:26;;;;;;;2.40;2.20;;;25.30;52.00;;;;;;6284659;28;20242;-78
2023/08/11 15:11:30;;;;;;;2.37;2.20;;;25.20;51.90;;;;;;6261532;28;20751;-80
2023/08/11 15:14:37;;;;;;;2.17;2.17;;;25.20;51.80;;;;;;6261056;28;20237;-77
2023/08/11 15:17:40;;;;;;;2.70;2.60;;;25.20;51.90;;;;;;6253071;28;20245;-77
2023/08/11 15:20:43;;;;;;;2.37;2.37;;;25.00;52.10;;;;;;6256202;28;20651;-78
2023/08/11 15:23:48;;;;;;;2.23;2.23;;;25.00;52.20;;;;;;6261915;28;20234;-79
2023/08/11 15:26:52;;;;;;;2.77;2.57;;;25.00;52.70;;;;;;6263927;28;20249;-79
2023/08/11 15:29:56;;;;;;;7.17;2.60;;;24.90;51.90;;;;;;6262698;28;20236;-78
2023/08/11 15:33:00;;;;;;;2.77;2.57;;;25.00;52.60;;;;;;6249497;28;20230;-79
2023/08/11 15:36:03;;;;;;;2.30;2.30;;;25.00;52.30;;;;;;6263133;28;20260;-78
2023/08/11 15:39:06;;;;;;;2.50;2.50;;;24.90;52.20;;;;;;6261589;28;20238;-78
2023/08/11 15:42:09;;;;;;;2.67;2.47;;;25.30;52.10;;;;;;6264518;28;20240;-79
2023/08/11 15:45:17;;;;;;;3.07;2.77;;;26.00;50.90;;;;;;6265597;28;20317;-78
2023/08/11 15:48:20;;;;;;;2.03;2.03;;;26.20;50.40;;;;;;6265642;28;20292;-77
2023/08/11 15:51:23;;;;;;;3.17;2.93;;;26.00;50.50;;;;;;6267661;28;20230;-79
2023/08/11 15:54:26;;;;;;;2.33;2.23;;;25.80;50.70;;;;;;6263842;28;20287;-79